Time;durP1;ratioP1;P1;durP2;ratioP2;P2;SDS_P1;SDS_P2;PMS_P1;PMS_P2;Temp;Humidity;BMP_temperature;BMP_pressure;BME280_temperature;BME280_humidity;BME280_pressure;Samples;Min_cycle;Max_cycle;Signal;HPM_P1;HPM_P2
2022/11/05 00:10:25;;;;;;;8.43;7.90;;;12.30;58.00;;;;;;20529;6842;337055;-88
2022/11/05 00:18:21;;;;;;;9.00;8.20;;;12.30;58.30;;;;;;20529;6842;307266;-86
2022/11/05 00:20:47;;;;;;;8.73;8.10;;;12.60;57.60;;;;;;20535;6842;307939;-86
2022/11/05 00:25:59;;;;;;;6.90;6.40;;;12.60;57.30;;;;;;20721;6842;119572;-87
2022/11/05 00:28:25;;;;;;;9.20;8.40;;;12.30;58.40;;;;;;20532;6842;311904;-86
2022/11/05 00:30:51;;;;;;;8.82;8.13;;;12.20;58.30;;;;;;20532;6842;306925;-86
2022/11/05 00:33:16;;;;;;;9.10;8.40;;;12.50;58.00;;;;;;20531;6840;278065;-86
2022/11/05 00:35:42;;;;;;;8.10;7.57;;;12.70;57.50;;;;;;20726;6841;117939;-86
2022/11/05 00:38:08;;;;;;;7.10;6.70;;;12.60;57.60;;;;;;20713;6841;127377;-86
2022/11/05 00:40:33;;;;;;;6.27;5.87;;;12.30;58.20;;;;;;20734;6841;119475;-87
2022/11/05 00:45:46;;;;;;;7.47;6.80;;;11.70;59.40;;;;;;20735;6842;117191;-86
2022/11/05 00:50:57;;;;;;;7.73;7.03;;;11.80;60.10;;;;;;20729;6842;117332;-86
2022/11/05 00:53:23;;;;;;;7.82;7.22;;;11.80;59.90;;;;;;20526;6842;282237;-86
2022/11/05 00:55:49;;;;;;;8.15;7.55;;;12.00;59.80;;;;;;20523;6842;308012;-86
2022/11/05 00:58:14;;;;;;;7.63;6.60;;;12.30;59.10;;;;;;20708;6842;118378;-86
2022/11/05 01:00:40;;;;;;;7.20;6.60;;;12.00;59.20;;;;;;20723;6842;117589;-87
2022/11/05 01:03:06;;;;;;;6.53;6.03;;;12.00;59.20;;;;;;20698;6842;117604;-87
2022/11/05 01:05:32;;;;;;;6.10;5.53;;;11.60;60.20;;;;;;20727;6842;118863;-87
2022/11/05 01:07:58;;;;;;;6.97;6.47;;;11.60;60.10;;;;;;20503;6842;277543;-89
2022/11/05 01:10:23;;;;;;;6.47;5.97;;;11.80;60.30;;;;;;20516;6842;307925;-88
2022/11/05 01:12:50;;;;;;;6.05;5.65;;;12.20;59.70;;;;;;20742;6842;118091;-87
2022/11/05 01:15:16;;;;;;;6.00;5.60;;;12.20;59.40;;;;;;20521;6842;310772;-87
2022/11/05 01:17:41;;;;;;;7.10;6.60;;;12.30;59.40;;;;;;20519;6842;288519;-87
2022/11/05 01:20:07;;;;;;;5.87;5.47;;;12.60;59.10;;;;;;20503;6842;310086;-87
2022/11/05 01:22:33;;;;;;;5.77;5.40;;;12.80;57.90;;;;;;20719;6842;118451;-87
2022/11/05 01:24:58;;;;;;;5.37;4.97;;;12.60;58.00;;;;;;20730;6842;117508;-87
2022/11/05 01:27:24;;;;;;;6.85;6.25;;;12.30;58.70;;;;;;20517;6842;312478;-87
2022/11/05 01:29:50;;;;;;;6.17;5.67;;;12.30;58.60;;;;;;20707;6842;118301;-87
2022/11/05 01:32:16;;;;;;;6.10;5.70;;;12.30;58.60;;;;;;20520;6842;294671;-87
2022/11/05 01:34:41;;;;;;;5.97;5.57;;;12.40;58.40;;;;;;20513;6842;294844;-87
2022/11/05 01:37:07;;;;;;;6.03;5.63;;;12.60;57.90;;;;;;20738;6842;121091;-87
2022/11/05 01:39:33;;;;;;;6.10;5.60;;;12.50;58.00;;;;;;20535;6842;307180;-87
2022/11/05 01:41:58;;;;;;;5.10;4.73;;;12.60;58.00;;;;;;20718;6842;118809;-87
2022/11/05 01:45:03;;;;;;;5.47;4.70;;;12.40;57.90;;;;;;20757;6840;72591;-87
2022/11/05 01:48:05;;;;;;;5.80;5.30;;;12.20;58.60;;;;;;20727;6841;117422;-87
2022/11/05 01:50:55;;;;;;;5.72;5.32;;;11.90;59.30;;;;;;19388;7186;325984;-87
2022/11/05 01:53:30;;;;;;;5.37;4.87;;;12.10;60.20;;;;;;19651;7187;120468;-87
2022/11/05 01:56:05;;;;;;;4.97;4.57;;;12.00;59.30;;;;;;19935;6861;125999;-87
2022/11/05 01:58:30;;;;;;;5.10;4.70;;;11.80;59.60;;;;;;20451;6852;301177;-87
2022/11/05 02:00:56;;;;;;;4.40;4.20;;;12.00;59.80;;;;;;20630;6856;119323;-88
2022/11/05 02:03:22;;;;;;;4.70;4.40;;;12.00;59.60;;;;;;20471;6857;308104;-89
2022/11/05 02:05:49;;;;;;;4.73;4.40;;;12.40;58.50;;;;;;20472;6857;301569;-87
2022/11/05 02:08:15;;;;;;;5.03;4.62;;;12.40;58.70;;;;;;20454;6857;336457;-87
2022/11/05 02:10:40;;;;;;;4.43;3.78;;;12.60;58.10;;;;;;20634;6853;118140;-88
2022/11/05 02:13:06;;;;;;;5.87;4.20;;;12.40;58.10;;;;;;20675;6853;118375;-87
2022/11/05 02:16:07;;;;;;;6.10;4.00;;;12.10;58.80;;;;;;20694;6853;117231;-87
2022/11/05 02:18:36;;;;;;;4.13;3.90;;;11.90;59.60;;;;;;20691;6854;117861;-87
2022/11/05 02:21:09;;;;;;;4.57;3.40;;;11.50;60.70;;;;;;20658;6854;117635;-86
2022/11/05 02:23:48;;;;;;;4.73;4.50;;;11.50;60.60;;;;;;20437;6854;281562;-86
2022/11/05 02:26:33;;;;;;;4.73;4.43;;;11.70;60.80;;;;;;20424;6853;310894;-86
2022/11/05 02:29:32;;;;;;;4.60;4.30;;;12.10;60.00;;;;;;19386;7211;357652;-87
2022/11/05 02:32:08;;;;;;;4.50;4.30;;;12.40;59.10;;;;;;20152;6849;307468;-88
2022/11/05 02:34:50;;;;;;;5.50;3.87;;;12.70;58.30;;;;;;20734;6849;68236;-88
2022/11/05 02:37:32;;;;;;;3.90;3.60;;;12.40;58.30;;;;;;19986;6884;124068;-86
2022/11/05 02:39:58;;;;;;;4.03;3.73;;;12.10;59.00;;;;;;20640;6857;122564;-88
2022/11/05 02:42:36;;;;;;;5.12;4.72;;;11.80;59.60;;;;;;20427;6840;278499;-88
2022/11/05 02:45:06;;;;;;;3.87;3.67;;;11.90;60.20;;;;;;20294;6841;117258;-87
2022/11/05 02:47:46;;;;;;;4.57;4.10;;;11.80;60.10;;;;;;20724;6840;118507;-88
2022/11/05 02:50:29;;;;;;;4.90;4.60;;;11.70;60.60;;;;;;20497;6840;337052;-87
2022/11/05 02:53:27;;;;;;;3.77;3.53;;;11.90;60.50;;;;;;20738;6840;118313;-87
2022/11/05 02:56:07;;;;;;;4.00;3.77;;;11.60;60.10;;;;;;20706;6838;117758;-88
2022/11/05 02:58:32;;;;;;;4.45;4.05;;;11.60;60.60;;;;;;20522;6839;309405;-87
2022/11/05 03:00:59;;;;;;;4.00;3.80;;;11.80;60.70;;;;;;20528;6839;325398;-88
2022/11/05 03:03:43;;;;;;;3.93;3.73;;;12.20;59.70;;;;;;20507;6839;307569;-88
2022/11/05 03:06:32;;;;;;;3.93;3.73;;;12.50;58.90;;;;;;20502;6839;293022;-88
2022/11/05 03:09:24;;;;;;;4.33;4.03;;;12.70;58.00;;;;;;20498;6839;277554;-87
2022/11/05 03:11:53;;;;;;;4.40;4.00;;;12.90;57.50;;;;;;20501;6839;277279;-88
2022/11/05 03:14:51;;;;;;;4.37;4.17;;;13.00;57.20;;;;;;20511;6840;305010;-87
2022/11/05 03:17:23;;;;;;;4.00;3.75;;;13.00;56.90;;;;;;19702;6840;278579;-87
2022/11/05 03:19:52;;;;;;;4.03;3.73;;;13.10;56.70;;;;;;20524;6838;277620;-87
2022/11/05 03:22:21;;;;;;;6.87;3.50;;;13.10;56.50;;;;;;20720;6838;117859;-87
2022/11/05 03:24:47;;;;;;;3.50;3.30;;;12.50;57.80;;;;;;20702;6838;118778;-87
2022/11/05 03:27:18;;;;;;;3.13;2.93;;;12.50;57.80;;;;;;20723;6838;118901;-86
2022/11/05 03:29:41;;;;;;;3.47;3.27;;;12.20;58.60;;;;;;20510;6838;280561;-86
2022/11/05 03:32:08;;;;;;;3.85;3.55;;;12.30;59.00;;;;;;20507;6838;301688;-87
2022/11/05 03:34:37;;;;;;;3.90;3.70;;;12.60;58.40;;;;;;20530;6838;306609;-87
2022/11/05 03:37:02;;;;;;;3.17;2.97;;;12.80;57.80;;;;;;20721;6838;117551;-89
2022/11/05 03:39:34;;;;;;;3.70;3.50;;;12.60;57.80;;;;;;20528;6838;281755;-87
2022/11/05 03:41:59;;;;;;;3.63;3.37;;;12.70;58.00;;;;;;20718;6838;117561;-87
2022/11/05 03:44:25;;;;;;;2.67;2.42;;;12.50;58.10;;;;;;20742;6838;118990;-87
2022/11/05 03:46:51;;;;;;;3.43;2.93;;;12.30;58.70;;;;;;20748;6838;116426;-88
2022/11/05 03:49:16;;;;;;;3.70;3.40;;;12.00;59.20;;;;;;20528;6838;335891;-90
2022/11/05 03:51:42;;;;;;;2.73;2.63;;;12.10;59.30;;;;;;20736;6838;118308;-87
2022/11/05 03:54:09;;;;;;;3.30;3.10;;;12.10;59.10;;;;;;20723;6838;118423;-88
2022/11/05 03:56:34;;;;;;;3.80;3.60;;;11.90;59.40;;;;;;20597;6838;305700;-89
2022/11/05 03:59:01;;;;;;;4.10;3.80;;;12.00;59.50;;;;;;20548;6838;336081;-88
2022/11/05 04:01:27;;;;;;;3.62;3.42;;;12.30;58.80;;;;;;20519;6838;281311;-87
2022/11/05 04:03:54;;;;;;;3.93;3.60;;;12.60;58.30;;;;;;20509;6838;307779;-88
2022/11/05 04:14:36;;;;;;;3.47;3.33;;;13.00;56.70;;;;;;20735;6838;118186;-87
2022/11/05 04:17:05;;;;;;;3.40;3.20;;;12.70;57.10;;;;;;20739;6838;117109;-88
2022/11/05 04:25:03;;;;;;;4.00;3.70;;;12.50;58.10;;;;;;20531;6838;277887;-87
2022/11/05 04:27:30;;;;;;;3.37;3.20;;;12.70;57.70;;;;;;20733;6838;118199;-87
2022/11/05 04:32:41;;;;;;;3.27;3.17;;;12.20;58.70;;;;;;20734;6838;118728;-88
2022/11/05 04:35:07;;;;;;;3.75;3.55;;;11.90;59.50;;;;;;20526;6838;306920;-87
2022/11/05 04:37:33;;;;;;;4.60;4.30;;;12.30;60.00;;;;;;20532;6838;282063;-88
2022/11/05 04:39:58;;;;;;;3.67;3.37;;;12.30;59.40;;;;;;20722;6838;117970;-87
2022/11/05 04:42:24;;;;;;;4.03;3.60;;;12.20;59.20;;;;;;20745;6838;118606;-87
2022/11/05 04:44:50;;;;;;;4.62;4.22;;;12.00;59.70;;;;;;20536;6838;344779;-88
2022/11/05 04:47:18;;;;;;;3.83;3.62;;;12.10;60.00;;;;;;20743;6838;120414;-88
2022/11/05 04:49:45;;;;;;;4.47;4.17;;;12.10;60.00;;;;;;20540;6838;280235;-87
2022/11/05 04:52:10;;;;;;;4.20;3.77;;;12.20;60.20;;;;;;20728;6838;117666;-87
2022/11/05 04:54:38;;;;;;;4.93;4.62;;;12.30;59.80;;;;;;20534;6838;278567;-88
2022/11/05 04:57:03;;;;;;;4.73;4.43;;;12.30;59.80;;;;;;20521;6838;309231;-88
2022/11/05 04:59:29;;;;;;;4.47;4.17;;;12.80;58.20;;;;;;20489;6838;277719;-88
2022/11/05 05:01:56;;;;;;;4.00;3.80;;;12.80;58.20;;;;;;20509;6838;278425;-87
2022/11/05 05:04:22;;;;;;;3.80;3.60;;;12.90;57.50;;;;;;20539;6838;276695;-88
2022/11/05 05:06:49;;;;;;;3.22;3.03;;;13.00;56.90;;;;;;20758;6838;118339;-88
2022/11/05 05:09:14;;;;;;;4.43;4.13;;;12.80;57.30;;;;;;20480;6838;291955;-88
2022/11/05 05:11:40;;;;;;;4.20;4.00;;;12.70;57.50;;;;;;20740;6838;117550;-89
2022/11/05 05:14:06;;;;;;;3.50;3.30;;;12.60;57.90;;;;;;20716;6838;118383;-88
2022/11/05 05:16:31;;;;;;;3.33;3.13;;;12.30;58.60;;;;;;20756;6838;117410;-87
2022/11/05 05:18:58;;;;;;;3.17;2.92;;;12.00;59.10;;;;;;20744;6836;116249;-89
2022/11/05 05:21:37;;;;;;;3.33;3.13;;;11.80;59.60;;;;;;20745;6837;117110;-89
2022/11/05 05:24:07;;;;;;;3.70;3.40;;;11.70;60.00;;;;;;20724;6837;119095;-88
2022/11/05 05:26:31;;;;;;;3.53;3.23;;;11.50;60.30;;;;;;20725;6838;121398;-89
2022/11/05 05:28:57;;;;;;;3.50;3.30;;;11.40;60.50;;;;;;20730;6838;117206;-88
2022/11/05 05:31:22;;;;;;;3.33;3.10;;;11.40;60.80;;;;;;20729;6838;121295;-89
2022/11/05 05:33:48;;;;;;;3.92;3.70;;;11.30;61.00;;;;;;20526;6838;340316;-88
2022/11/05 05:36:14;;;;;;;3.03;2.87;;;11.60;61.00;;;;;;20730;6838;120568;-90
2022/11/05 05:38:40;;;;;;;3.17;3.03;;;11.60;61.00;;;;;;20737;6838;118163;-88
2022/11/05 05:41:05;;;;;;;3.00;2.70;;;11.50;61.10;;;;;;20748;6838;117172;-89
2022/11/05 05:43:31;;;;;;;2.40;2.30;;;11.40;61.40;;;;;;20746;6838;117262;-88
2022/11/05 05:46:04;;;;;;;2.60;2.40;;;11.20;61.90;;;;;;20726;6838;117869;-87
2022/11/05 05:48:30;;;;;;;2.23;2.13;;;11.20;61.80;;;;;;20738;6838;117293;-87
2022/11/05 05:50:59;;;;;;;3.53;2.43;;;11.10;62.00;;;;;;20740;6838;117196;-89
2022/11/05 05:53:24;;;;;;;2.37;2.27;;;11.10;62.10;;;;;;20724;6838;118879;-88
2022/11/05 05:55:50;;;;;;;3.25;2.95;;;11.00;62.20;;;;;;20532;6838;295955;-88
2022/11/05 05:58:15;;;;;;;2.33;2.23;;;11.20;62.20;;;;;;20538;6838;118774;-88
2022/11/05 06:00:41;;;;;;;2.50;2.40;;;11.40;61.70;;;;;;20731;6838;117652;-88
2022/11/05 06:03:07;;;;;;;2.75;2.58;;;11.10;62.00;;;;;;20732;6838;117738;-90
2022/11/05 06:05:33;;;;;;;3.03;2.70;;;11.10;61.90;;;;;;20725;6838;117682;-88
2022/11/05 06:07:59;;;;;;;3.33;3.13;;;11.00;62.10;;;;;;20481;6838;307610;-89
2022/11/05 06:10:24;;;;;;;3.37;3.07;;;11.30;62.30;;;;;;20522;6838;307652;-87
2022/11/05 06:12:50;;;;;;;3.63;3.13;;;11.70;61.90;;;;;;20681;6838;119841;-88
2022/11/05 06:15:15;;;;;;;4.15;3.85;;;11.70;61.50;;;;;;20511;6838;336895;-88
2022/11/05 06:17:45;;;;;;;4.68;4.30;;;11.80;61.20;;;;;;20517;6838;278312;-87
2022/11/05 06:20:13;;;;;;;4.27;4.07;;;12.10;60.50;;;;;;20703;6838;119129;-89
2022/11/05 06:22:39;;;;;;;4.87;4.57;;;12.00;60.40;;;;;;20542;6838;277622;-87
2022/11/05 06:25:05;;;;;;;7.40;3.90;;;12.10;60.50;;;;;;20740;6838;119154;-88
2022/11/05 06:27:30;;;;;;;4.00;3.70;;;12.00;60.50;;;;;;20740;6838;118728;-90
2022/11/05 06:29:56;;;;;;;6.23;3.63;;;11.80;61.00;;;;;;20726;6836;118338;-88
2022/11/05 06:32:22;;;;;;;4.47;4.10;;;11.50;61.40;;;;;;20522;6837;307133;-87
2022/11/05 06:34:48;;;;;;;3.70;3.50;;;11.70;61.50;;;;;;20732;6837;118073;-87
2022/11/05 06:37:14;;;;;;;4.10;3.80;;;11.70;61.30;;;;;;20754;6838;117692;-88
2022/11/05 06:39:39;;;;;;;3.78;3.47;;;11.50;61.70;;;;;;20745;6838;118664;-89
2022/11/05 06:42:06;;;;;;;4.10;3.90;;;11.30;62.40;;;;;;20738;6838;117291;-88
2022/11/05 06:44:33;;;;;;;8.63;8.13;;;11.30;62.40;;;;;;20746;6838;122094;-88
2022/11/05 06:46:59;;;;;;;4.77;4.40;;;11.20;62.70;;;;;;20519;6838;305269;-88
2022/11/05 06:49:24;;;;;;;5.60;5.40;;;11.40;62.60;;;;;;20536;6838;285433;-90
2022/11/05 06:51:49;;;;;;;5.50;5.20;;;11.80;61.30;;;;;;20531;6838;307946;-88
2022/11/05 06:54:15;;;;;;;4.00;3.80;;;12.20;60.30;;;;;;20521;6838;306688;-90
2022/11/05 06:56:40;;;;;;;4.18;3.87;;;12.40;59.60;;;;;;20743;6838;118496;-91
2022/11/05 06:59:07;;;;;;;3.50;3.30;;;12.30;59.50;;;;;;20740;6838;117466;-90
2022/11/05 07:01:32;;;;;;;3.62;3.42;;;12.00;60.20;;;;;;20531;6838;338222;-88
2022/11/05 07:03:57;;;;;;;3.73;3.37;;;12.10;60.50;;;;;;20711;6838;119338;-90
2022/11/05 07:06:30;;;;;;;3.10;3.00;;;12.00;60.30;;;;;;20709;6838;117904;-89
2022/11/05 07:09:03;;;;;;;4.30;4.10;;;11.80;60.90;;;;;;20529;6838;278214;-90
2022/11/05 07:11:21;;;;;;;3.70;3.40;;;11.90;60.90;;;;;;20680;6838;117582;-89
2022/11/05 07:13:48;;;;;;;3.83;3.53;;;11.90;60.80;;;;;;20500;6838;276968;-89
2022/11/05 07:16:13;;;;;;;3.97;3.77;;;12.10;60.80;;;;;;20502;6838;298276;-89
2022/11/05 07:18:40;;;;;;;2.28;2.17;;;12.30;59.90;;;;;;20751;6838;118125;-87
2022/11/05 07:21:05;;;;;;;3.07;2.87;;;12.20;59.80;;;;;;20752;6838;118511;-89
2022/11/05 07:23:31;;;;;;;3.05;2.85;;;12.00;60.50;;;;;;20532;6838;311214;-91
2022/11/05 07:25:57;;;;;;;2.60;2.50;;;12.10;60.40;;;;;;20714;6838;118284;-90
2022/11/05 07:28:23;;;;;;;2.40;2.30;;;12.10;60.30;;;;;;20754;6838;117668;-91
2022/11/05 07:30:48;;;;;;;2.12;2.03;;;11.90;60.70;;;;;;20776;6838;117195;-90
2022/11/05 07:33:14;;;;;;;2.10;2.00;;;11.70;61.20;;;;;;20748;6838;117199;-92
2022/11/05 07:35:40;;;;;;;1.90;1.80;;;11.50;61.50;;;;;;20753;6838;116713;-91
2022/11/05 07:38:07;;;;;;;1.83;1.83;;;11.40;61.80;;;;;;20523;6838;341127;-91
2022/11/05 07:40:32;;;;;;;4.70;2.00;;;11.60;61.30;;;;;;20745;6836;123249;-93
2022/11/05 07:42:58;;;;;;;2.05;1.87;;;11.70;61.10;;;;;;20535;6837;307890;-91
2022/11/05 07:45:23;;;;;;;1.50;1.50;;;11.80;60.80;;;;;;20741;6837;118736;-90
2022/11/05 07:47:49;;;;;;;2.75;1.95;;;11.90;60.70;;;;;;20514;6838;341810;-92
2022/11/05 07:50:14;;;;;;;2.37;1.87;;;12.10;60.30;;;;;;20512;6838;278561;-90
2022/11/05 07:52:40;;;;;;;4.18;2.10;;;12.40;59.70;;;;;;20546;6838;277666;-92
2022/11/05 07:55:06;;;;;;;2.20;2.10;;;12.50;58.80;;;;;;20783;6838;117256;-91
2022/11/05 07:57:32;;;;;;;4.17;2.63;;;12.50;58.80;;;;;;20537;6838;307211;-92
2022/11/05 07:59:58;;;;;;;2.62;2.42;;;12.50;59.70;;;;;;20489;6838;309931;-92
2022/11/05 08:02:23;;;;;;;2.90;2.40;;;12.70;58.70;;;;;;20752;6838;118973;-91
2022/11/05 08:04:49;;;;;;;1.80;1.70;;;12.50;58.70;;;;;;20737;6838;117128;-89
2022/11/05 08:07:14;;;;;;;1.63;1.53;;;12.20;59.30;;;;;;20734;6838;117137;-88
2022/11/05 08:09:40;;;;;;;1.87;1.77;;;11.90;60.00;;;;;;20743;6838;118943;-88
2022/11/05 08:12:07;;;;;;;1.63;1.50;;;11.70;60.50;;;;;;20518;6838;337217;-88
2022/11/05 08:14:34;;;;;;;1.70;1.60;;;11.90;60.70;;;;;;20741;6838;118584;-90
2022/11/05 08:16:59;;;;;;;1.70;1.60;;;11.80;60.40;;;;;;20744;6838;117332;-88
2022/11/05 08:19:25;;;;;;;1.83;1.73;;;11.70;60.80;;;;;;20740;6838;121846;-89
2022/11/05 08:21:50;;;;;;;1.50;1.40;;;11.60;61.20;;;;;;20715;6838;118585;-87
2022/11/05 08:24:18;;;;;;;1.80;1.70;;;11.50;61.60;;;;;;20362;6838;308187;-88
2022/11/05 08:26:43;;;;;;;1.90;1.80;;;11.70;61.70;;;;;;20523;6838;340312;-89
2022/11/05 08:29:09;;;;;;;2.07;1.70;;;12.10;60.90;;;;;;20737;6838;117180;-89
2022/11/05 08:31:36;;;;;;;1.67;1.62;;;11.90;61.00;;;;;;20733;6838;118323;-88
2022/11/05 08:34:02;;;;;;;1.60;1.53;;;11.90;61.00;;;;;;20710;6838;118328;-89
2022/11/05 08:36:27;;;;;;;1.60;1.50;;;11.70;61.50;;;;;;20537;6838;277779;-88
2022/11/05 08:38:53;;;;;;;2.22;2.12;;;11.90;61.40;;;;;;20531;6838;305521;-88
2022/11/05 08:41:19;;;;;;;1.83;1.73;;;12.30;60.80;;;;;;20748;6838;117217;-87
2022/11/05 08:43:44;;;;;;;1.60;1.60;;;12.30;60.50;;;;;;20749;6838;117757;-89
2022/11/05 08:46:10;;;;;;;1.52;1.52;;;12.10;61.00;;;;;;20719;6838;118148;-88
2022/11/05 08:48:36;;;;;;;1.30;1.30;;;11.90;61.90;;;;;;20732;6838;117489;-88
2022/11/05 08:51:02;;;;;;;1.37;1.37;;;11.90;61.80;;;;;;20743;6838;117327;-88
2022/11/05 08:53:30;;;;;;;1.57;1.50;;;11.70;62.30;;;;;;20750;6836;118332;-93
2022/11/05 08:55:56;;;;;;;1.40;1.40;;;11.70;62.20;;;;;;20514;6837;280455;-91
2022/11/05 08:58:22;;;;;;;1.45;1.40;;;12.00;61.40;;;;;;20533;6837;307191;-89
2022/11/05 09:00:47;;;;;;;1.37;1.30;;;12.40;60.00;;;;;;20744;6838;121455;-90
2022/11/05 09:03:14;;;;;;;3.23;3.03;;;12.40;59.70;;;;;;20751;6838;119384;-90
2022/11/05 09:05:41;;;;;;;4.83;4.53;;;12.20;60.30;;;;;;20670;6838;117171;-88
2022/11/05 09:08:07;;;;;;;6.73;6.40;;;12.10;60.60;;;;;;20471;6838;277266;-89
2022/11/05 09:10:32;;;;;;;7.07;6.67;;;12.30;58.90;;;;;;20570;6838;277974;-92
2022/11/05 09:13:21;;;;;;;6.30;6.00;;;12.60;57.60;;;;;;20554;6838;336580;-87
2022/11/05 09:15:47;;;;;;;5.50;5.20;;;12.80;56.80;;;;;;20779;6838;117307;-91
2022/11/05 09:18:14;;;;;;;5.70;5.40;;;12.60;57.20;;;;;;20537;6838;280082;-87
2022/11/05 09:20:39;;;;;;;5.30;5.00;;;12.70;57.10;;;;;;20545;6838;336175;-93
2022/11/05 09:23:06;;;;;;;4.40;4.20;;;12.90;57.40;;;;;;20779;6838;117306;-90
2022/11/05 09:25:33;;;;;;;3.90;3.70;;;12.60;58.20;;;;;;20772;6838;117673;-88
2022/11/05 09:28:12;;;;;;;4.72;4.43;;;12.60;56.80;;;;;;20531;6838;278252;-88
2022/11/05 09:30:40;;;;;;;4.72;4.43;;;12.60;56.80;;;;;;20548;6838;311650;-91
2022/11/05 09:33:06;;;;;;;4.67;4.30;;;12.90;55.90;;;;;;20767;6838;118508;-92
2022/11/05 09:35:31;;;;;;;5.45;5.15;;;12.80;56.40;;;;;;20516;6838;309247;-89
2022/11/05 09:37:57;;;;;;;4.00;3.80;;;12.90;57.00;;;;;;20723;6838;123726;-89
2022/11/05 09:40:23;;;;;;;4.00;3.70;;;12.80;57.10;;;;;;20552;6838;338791;-92
2022/11/05 09:42:51;;;;;;;3.87;3.47;;;12.90;56.60;;;;;;20763;6838;117168;-91
2022/11/05 09:45:17;;;;;;;3.40;3.20;;;12.90;56.60;;;;;;20744;6838;117722;-90
2022/11/05 09:47:43;;;;;;;3.97;3.70;;;12.80;57.20;;;;;;20540;6838;306379;-92
2022/11/05 09:50:19;;;;;;;3.65;3.37;;;13.00;57.10;;;;;;20738;6838;119030;-90
2022/11/05 09:52:45;;;;;;;3.40;3.20;;;13.00;57.10;;;;;;20702;6838;118477;-91
2022/11/05 09:55:34;;;;;;;3.77;3.47;;;12.80;58.20;;;;;;20769;6838;117685;-87
2022/11/05 09:58:00;;;;;;;4.33;4.03;;;12.80;58.20;;;;;;20522;6838;307560;-91
2022/11/05 10:00:28;;;;;;;3.50;3.30;;;13.10;58.20;;;;;;20742;6838;117868;-90
2022/11/05 10:02:57;;;;;;;3.70;3.50;;;13.30;58.30;;;;;;20544;6838;306512;-91
2022/11/05 10:05:23;;;;;;;2.83;2.73;;;13.60;57.10;;;;;;20732;6836;117135;-89
2022/11/05 10:07:58;;;;;;;2.83;2.62;;;13.70;57.00;;;;;;20690;6837;117109;-89
2022/11/05 10:10:37;;;;;;;2.92;2.72;;;13.80;55.70;;;;;;20275;6838;341899;-89
2022/11/05 10:13:16;;;;;;;2.87;2.67;;;13.80;55.70;;;;;;20737;6838;118524;-91
2022/11/05 10:15:42;;;;;;;2.80;2.70;;;13.80;55.80;;;;;;20753;6838;118752;-88
2022/11/05 10:18:21;;;;;;;3.30;3.20;;;13.60;56.10;;;;;;20503;6838;338976;-91
2022/11/05 10:20:46;;;;;;;3.37;3.17;;;13.80;54.10;;;;;;20533;6838;277713;-91
2022/11/05 10:23:12;;;;;;;3.20;3.00;;;14.00;52.40;;;;;;20528;6838;309715;-88
2022/11/05 10:25:38;;;;;;;3.03;2.83;;;14.20;51.80;;;;;;20754;6838;117774;-91
2022/11/05 10:28:04;;;;;;;2.90;2.80;;;13.90;52.30;;;;;;20733;6838;121499;-91
2022/11/05 10:30:30;;;;;;;3.20;3.03;;;13.60;53.30;;;;;;20559;6838;277663;-90
2022/11/05 10:32:56;;;;;;;3.53;3.30;;;13.60;53.10;;;;;;20563;6838;309249;-93
2022/11/05 10:35:22;;;;;;;3.17;2.97;;;13.80;52.90;;;;;;20763;6838;117336;-92
2022/11/05 10:37:47;;;;;;;3.30;3.20;;;13.80;53.30;;;;;;20603;6838;276188;-94
2022/11/05 10:40:33;;;;;;;3.00;2.80;;;13.80;52.50;;;;;;20802;6838;118161;-93
2022/11/05 10:43:06;;;;;;;3.43;3.23;;;13.70;53.10;;;;;;20620;6838;305217;-93
2022/11/05 10:45:51;;;;;;;2.80;2.70;;;13.80;52.70;;;;;;20827;6838;73193;-91
2022/11/05 10:48:35;;;;;;;3.37;3.17;;;13.60;53.10;;;;;;20597;6838;305535;-92
2022/11/05 10:51:00;;;;;;;4.30;3.13;;;13.70;53.10;;;;;;20777;6838;116553;-93
2022/11/05 10:53:26;;;;;;;3.20;3.00;;;13.60;53.60;;;;;;20843;6838;67277;-90
2022/11/05 10:55:53;;;;;;;3.50;3.30;;;13.40;54.10;;;;;;20518;6838;308556;-90
2022/11/05 10:58:20;;;;;;;3.23;3.03;;;13.50;53.50;;;;;;20598;6838;113280;-91
2022/11/05 11:00:52;;;;;;;3.60;3.40;;;13.50;53.80;;;;;;20812;6838;116231;-92
2022/11/05 11:03:47;;;;;;;2.90;2.80;;;13.40;54.40;;;;;;20802;6838;70653;-90
2022/11/05 11:06:23;;;;;;;3.97;3.77;;;13.20;54.80;;;;;;20563;6838;298536;-89
2022/11/05 11:08:50;;;;;;;3.47;3.27;;;13.50;54.00;;;;;;20799;6838;118346;-89
2022/11/05 11:11:35;;;;;;;3.83;3.62;;;13.60;54.10;;;;;;20532;6838;336878;-89
2022/11/05 11:14:04;;;;;;;4.03;3.83;;;13.80;53.00;;;;;;20540;6838;281295;-89
2022/11/05 11:16:41;;;;;;;4.00;3.80;;;14.10;52.20;;;;;;20517;6836;328310;-92
2022/11/05 11:19:20;;;;;;;3.87;3.67;;;14.40;51.80;;;;;;20750;6837;120172;-91
2022/11/05 11:22:01;;;;;;;4.20;4.00;;;14.30;52.30;;;;;;20782;6837;119600;-90
2022/11/05 11:24:27;;;;;;;5.00;4.70;;;14.00;53.00;;;;;;20532;6838;281283;-89
2022/11/05 11:26:53;;;;;;;5.12;4.82;;;14.10;52.30;;;;;;20529;6838;278006;-89
2022/11/05 11:29:18;;;;;;;4.83;4.47;;;14.40;51.80;;;;;;20784;6838;118132;-91
2022/11/05 11:31:44;;;;;;;4.70;4.40;;;14.30;52.20;;;;;;20538;6838;336203;-89
2022/11/05 11:34:15;;;;;;;4.72;4.53;;;14.40;51.80;;;;;;20504;6838;306667;-93
2022/11/05 11:36:44;;;;;;;4.55;4.30;;;14.60;50.80;;;;;;20565;6838;307166;-91
2022/11/05 11:39:16;;;;;;;4.20;3.83;;;14.80;50.50;;;;;;20759;6838;117263;-87
2022/11/05 11:41:43;;;;;;;4.07;3.87;;;14.70;51.00;;;;;;20706;6838;118287;-90
2022/11/05 11:44:16;;;;;;;4.20;4.00;;;14.40;51.70;;;;;;20717;6838;127392;-90
2022/11/05 11:46:42;;;;;;;4.80;4.60;;;14.10;52.40;;;;;;20522;6838;281036;-89
2022/11/05 11:49:07;;;;;;;4.70;4.30;;;14.30;50.90;;;;;;20716;6838;116250;-88
2022/11/05 11:51:39;;;;;;;4.60;4.40;;;14.20;51.30;;;;;;20436;6838;278135;-91
2022/11/05 11:54:01;;;;;;;4.67;4.47;;;14.40;50.90;;;;;;20457;6838;310128;-89
2022/11/05 11:56:27;;;;;;;4.37;4.07;;;14.60;49.30;;;;;;20712;6838;123171;-89
2022/11/05 11:58:54;;;;;;;5.60;5.30;;;14.50;50.00;;;;;;20374;6838;303214;-89
2022/11/05 12:01:39;;;;;;;7.10;6.70;;;14.50;49.80;;;;;;20447;6838;283191;-89
2022/11/05 12:04:28;;;;;;;5.10;4.80;;;14.60;49.60;;;;;;20693;6838;118505;-88
2022/11/05 12:07:22;;;;;;;6.67;6.07;;;14.40;50.40;;;;;;20699;6838;119786;-88
2022/11/05 12:10:28;;;;;;;7.78;7.28;;;14.00;51.10;;;;;;20504;6838;309785;-88
2022/11/05 12:13:00;;;;;;;8.37;7.70;;;14.10;50.70;;;;;;20678;6838;120143;-89
2022/11/05 12:15:52;;;;;;;9.10;8.40;;;13.90;51.30;;;;;;20513;6838;279711;-89
2022/11/05 12:18:41;;;;;;;5.97;5.50;;;14.00;51.40;;;;;;20723;6838;117258;-87
2022/11/05 12:21:27;;;;;;;5.70;5.30;;;13.90;51.90;;;;;;20705;6838;117209;-88
2022/11/05 12:24:02;;;;;;;6.28;5.87;;;13.70;52.30;;;;;;20492;6838;311344;-88
2022/11/05 12:26:47;;;;;;;6.45;6.05;;;13.90;50.60;;;;;;20504;6838;337049;-91
2022/11/05 12:29:39;;;;;;;6.33;5.93;;;14.20;50.50;;;;;;20594;6837;118614;-89
2022/11/05 12:32:21;;;;;;;4.63;4.33;;;14.10;51.00;;;;;;20713;6837;117699;-89
2022/11/05 12:35:03;;;;;;;4.77;4.37;;;13.80;51.70;;;;;;20682;6838;117627;-89
2022/11/05 12:37:29;;;;;;;4.70;4.40;;;13.60;52.40;;;;;;20777;6838;72939;-90
2022/11/05 12:39:57;;;;;;;5.53;5.23;;;13.40;52.90;;;;;;20539;6838;281291;-88
2022/11/05 14:32:49;;;;;;;4.97;4.67;;;15.50;45.80;;;;;;21413;6515;67568;-93
2022/11/05 14:35:16;;;;;;;5.17;4.77;;;15.20;46.70;;;;;;20918;6791;119779;-93
2022/11/05 14:37:54;;;;;;;5.63;5.20;;;14.70;47.60;;;;;;20669;6791;292317;-95
2022/11/05 14:40:21;;;;;;;5.53;5.13;;;14.60;47.90;;;;;;20775;6838;117108;-94
2022/11/05 14:43:00;;;;;;;5.37;4.97;;;14.40;48.30;;;;;;20688;6838;119285;-93
2022/11/05 14:45:32;;;;;;;6.57;6.07;;;14.10;49.00;;;;;;20540;6835;308918;-96
2022/11/05 14:48:40;;;;;;;7.00;6.50;;;14.20;48.90;;;;;;20621;6810;318792;-96
2022/11/05 14:51:06;;;;;;;6.50;6.00;;;14.50;48.40;;;;;;20651;6810;306070;-96
2022/11/05 14:53:32;;;;;;;6.00;5.60;;;14.70;47.60;;;;;;20053;6818;305998;-94
2022/11/05 14:55:57;;;;;;;5.47;5.18;;;14.80;47.70;;;;;;20563;6829;307527;-95
2022/11/05 14:58:26;;;;;;;5.60;5.10;;;14.90;48.00;;;;;;20770;6828;117456;-95
2022/11/05 15:00:51;;;;;;;5.93;5.43;;;14.60;48.50;;;;;;20595;6828;306955;-94
2022/11/05 15:03:40;;;;;;;6.32;5.80;;;14.50;48.70;;;;;;20861;6802;119573;-96
2022/11/05 15:06:26;;;;;;;12.53;10.03;;;14.30;49.20;;;;;;20670;6802;292221;-95
2022/11/05 15:08:56;;;;;;;13.27;10.03;;;14.30;49.30;;;;;;20896;6802;117507;-96
2022/11/05 15:11:34;;;;;;;6.40;5.90;;;14.00;49.60;;;;;;20668;6802;308418;-96
2022/11/05 15:14:29;;;;;;;5.80;5.43;;;14.00;49.90;;;;;;20756;6831;117207;-96
2022/11/05 15:16:55;;;;;;;7.77;6.77;;;13.90;50.30;;;;;;20834;6819;116470;-95
2022/11/05 15:19:36;;;;;;;7.47;6.77;;;13.50;50.90;;;;;;20763;6847;117299;-96
2022/11/05 15:22:26;;;;;;;6.60;6.10;;;13.30;51.40;;;;;;20773;6851;117497;-96